sensor_id;sensor_type;location;lat;lon;timestamp;P1;P2;P0
61592;PMS5003;47485;51.378;-1.342;2022-12-11T00:00:35;100;82;
61592;PMS5003;47485;51.378;-1.342;2022-12-11T00:03:03;77;72;
61592;PMS5003;47485;51.378;-1.342;2022-12-11T00:05:30;83;70;
61592;PMS5003;47485;51.378;-1.342;2022-12-11T00:07:56;84;74;
61592;PMS5003;47485;51.378;-1.342;2022-12-11T00:10:24;90;74;
61592;PMS5003;47485;51.378;-1.342;2022-12-11T00:12:50;85;69;
61592;PMS5003;47485;51.378;-1.342;2022-12-11T00:15:17;70;59;
61592;PMS5003;47485;51.378;-1.342;2022-12-11T00:17:43;70;62;
61592;PMS5003;47485;51.378;-1.342;2022-12-11T00:20:11;63;55;
61592;PMS5003;47485;51.378;-1.342;2022-12-11T00:22:39;71;61;
61592;PMS5003;47485;51.378;-1.342;2022-12-11T00:25:06;64;56;
61592;PMS5003;47485;51.378;-1.342;2022-12-11T00:27:33;69;55;
61592;PMS5003;47485;51.378;-1.342;2022-12-11T00:30:00;64;52;
61592;PMS5003;47485;51.378;-1.342;2022-12-11T00:32:27;63;54;
61592;PMS5003;47485;51.378;-1.342;2022-12-11T00:34:54;80;60;
61592;PMS5003;47485;51.378;-1.342;2022-12-11T00:37:21;63;59;
61592;PMS5003;47485;51.378;-1.342;2022-12-11T00:39:48;59;54;
61592;PMS5003;47485;51.378;-1.342;2022-12-11T00:42:14;68;57;
61592;PMS5003;47485;51.378;-1.342;2022-12-11T00:44:41;60;52;
61592;PMS5003;47485;51.378;-1.342;2022-12-11T00:47:08;73;60;
61592;PMS5003;47485;51.378;-1.342;2022-12-11T00:49:35;61;53;
61592;PMS5003;47485;51.378;-1.342;2022-12-11T00:52:01;69;55;
61592;PMS5003;47485;51.378;-1.342;2022-12-11T00:54:29;67;55;
61592;PMS5003;47485;51.378;-1.342;2022-12-11T00:56:55;71;54;
61592;PMS5003;47485;51.378;-1.342;2022-12-11T00:59:22;69;54;
61592;PMS5003;47485;51.378;-1.342;2022-12-11T01:01:48;51;46;
61592;PMS5003;47485;51.378;-1.342;2022-12-11T01:04:15;53;49;
61592;PMS5003;47485;51.378;-1.342;2022-12-11T01:06:41;46;41;
61592;PMS5003;47485;51.378;-1.342;2022-12-11T01:09:08;68;52;
61592;PMS5003;47485;51.378;-1.342;2022-12-11T01:11:35;54;50;
61592;PMS5003;47485;51.378;-1.342;2022-12-11T01:14:02;49;39;
61592;PMS5003;47485;51.378;-1.342;2022-12-11T01:16:28;59;49;
61592;PMS5003;47485;51.378;-1.342;2022-12-11T01:18:55;59;46;
61592;PMS5003;47485;51.378;-1.342;2022-12-11T01:21:22;47;43;
61592;PMS5003;47485;51.378;-1.342;2022-12-11T01:23:49;68;55;
61592;PMS5003;47485;51.378;-1.342;2022-12-11T01:26:16;62;52;
61592;PMS5003;47485;51.378;-1.342;2022-12-11T01:28:44;62;51;
61592;PMS5003;47485;51.378;-1.342;2022-12-11T01:31:15;58;53;
61592;PMS5003;47485;51.378;-1.342;2022-12-11T01:33:44;49;43;
61592;PMS5003;47485;51.378;-1.342;2022-12-11T01:36:12;48;44;
61592;PMS5003;47485;51.378;-1.342;2022-12-11T01:38:41;54;45;
61592;PMS5003;47485;51.378;-1.342;2022-12-11T01:41:08;55;50;
61592;PMS5003;47485;51.378;-1.342;2022-12-11T01:43:53;51;50;
61592;PMS5003;47485;51.378;-1.342;2022-12-11T01:46:21;47;42;
61592;PMS5003;47485;51.378;-1.342;2022-12-11T01:48:48;58;52;
61592;PMS5003;47485;51.378;-1.342;2022-12-11T01:51:15;75;66;
61592;PMS5003;47485;51.378;-1.342;2022-12-11T01:53:44;83;72;
61592;PMS5003;47485;51.378;-1.342;2022-12-11T01:56:17;89;74;
61592;PMS5003;47485;51.378;-1.342;2022-12-11T01:58:46;81;66;
61592;PMS5003;47485;51.378;-1.342;2022-12-11T02:01:17;77;67;
61592;PMS5003;47485;51.378;-1.342;2022-12-11T02:03:49;73;64;
61592;PMS5003;47485;51.378;-1.342;2022-12-11T02:06:34;85;57;
61592;PMS5003;47485;51.378;-1.342;2022-12-11T02:09:03;61;53;
61592;PMS5003;47485;51.378;-1.342;2022-12-11T02:11:35;59;51;
61592;PMS5003;47485;51.378;-1.342;2022-12-11T02:14:11;66;57;
61592;PMS5003;47485;51.378;-1.342;2022-12-11T02:16:44;70;55;
61592;PMS5003;47485;51.378;-1.342;2022-12-11T02:19:21;60;51;
61592;PMS5003;47485;51.378;-1.342;2022-12-11T02:22:07;70;57;
61592;PMS5003;47485;51.378;-1.342;2022-12-11T02:24:42;66;55;
61592;PMS5003;47485;51.378;-1.342;2022-12-11T02:27:22;66;55;
61592;PMS5003;47485;51.378;-1.342;2022-12-11T02:29:57;61;49;
61592;PMS5003;47485;51.378;-1.342;2022-12-11T02:32:30;62;56;
61592;PMS5003;47485;51.378;-1.342;2022-12-11T02:35:03;56;49;
61592;PMS5003;47485;51.378;-1.342;2022-12-11T02:37:36;55;42;
61592;PMS5003;47485;51.378;-1.342;2022-12-11T02:40:04;56;47;
61592;PMS5003;47485;51.378;-1.342;2022-12-11T02:42:35;73;56;
61592;PMS5003;47485;51.378;-1.342;2022-12-11T02:45:05;69;60;
61592;PMS5003;47485;51.378;-1.342;2022-12-11T02:47:34;70;60;
61592;PMS5003;47485;51.378;-1.342;2022-12-11T02:50:03;68;64;
61592;PMS5003;47485;51.378;-1.342;2022-12-11T02:52:35;54;50;
61592;PMS5003;47485;51.378;-1.342;2022-12-11T02:55:04;54;43;
61592;PMS5003;47485;51.378;-1.342;2022-12-11T02:57:33;57;49;
61592;PMS5003;47485;51.378;-1.342;2022-12-11T03:00:07;58;51;
61592;PMS5003;47485;51.378;-1.342;2022-12-11T03:02:35;53;45;
61592;PMS5003;47485;51.378;-1.342;2022-12-11T03:05:02;58;49;
61592;PMS5003;47485;51.378;-1.342;2022-12-11T03:07:31;71;60;
61592;PMS5003;47485;51.378;-1.342;2022-12-11T03:09:59;62;54;
61592;PMS5003;47485;51.378;-1.342;2022-12-11T03:12:27;43;41;
61592;PMS5003;47485;51.378;-1.342;2022-12-11T03:14:56;47;42;
61592;PMS5003;47485;51.378;-1.342;2022-12-11T03:17:25;49;45;
61592;PMS5003;47485;51.378;-1.342;2022-12-11T03:19:59;49;37;
61592;PMS5003;47485;51.378;-1.342;2022-12-11T03:22:33;49;37;
61592;PMS5003;47485;51.378;-1.342;2022-12-11T03:25:06;48;37;
61592;PMS5003;47485;51.378;-1.342;2022-12-11T03:27:35;50;45;
61592;PMS5003;47485;51.378;-1.342;2022-12-11T03:30:09;51;42;
61592;PMS5003;47485;51.378;-1.342;2022-12-11T03:32:40;59;52;
61592;PMS5003;47485;51.378;-1.342;2022-12-11T03:35:15;71;57;
61592;PMS5003;47485;51.378;-1.342;2022-12-11T03:37:46;60;55;
61592;PMS5003;47485;51.378;-1.342;2022-12-11T03:40:15;75;59;
61592;PMS5003;47485;51.378;-1.342;2022-12-11T03:42:45;69;54;
61592;PMS5003;47485;51.378;-1.342;2022-12-11T03:45:15;64;54;
61592;PMS5003;47485;51.378;-1.342;2022-12-11T03:47:44;70;60;
61592;PMS5003;47485;51.378;-1.342;2022-12-11T03:50:12;69;61;
61592;PMS5003;47485;51.378;-1.342;2022-12-11T03:52:41;70;62;
61592;PMS5003;47485;51.378;-1.342;2022-12-11T03:55:12;82;64;
61592;PMS5003;47485;51.378;-1.342;2022-12-11T03:57:40;58;56;
61592;PMS5003;47485;51.378;-1.342;2022-12-11T04:00:10;63;53;
61592;PMS5003;47485;51.378;-1.342;2022-12-11T04:02:39;73;67;
61592;PMS5003;47485;51.378;-1.342;2022-12-11T04:05:07;61;49;
61592;PMS5003;47485;51.378;-1.342;2022-12-11T04:07:35;64;53;
61592;PMS5003;47485;51.378;-1.342;2022-12-11T04:10:03;73;59;
61592;PMS5003;47485;51.378;-1.342;2022-12-11T04:12:30;70;54;
61592;PMS5003;47485;51.378;-1.342;2022-12-11T04:14:57;64;56;
61592;PMS5003;47485;51.378;-1.342;2022-12-11T04:17:23;63;58;
61592;PMS5003;47485;51.378;-1.342;2022-12-11T04:19:51;69;55;
61592;PMS5003;47485;51.378;-1.342;2022-12-11T04:22:18;67;56;
61592;PMS5003;47485;51.378;-1.342;2022-12-11T04:24:46;67;55;
61592;PMS5003;47485;51.378;-1.342;2022-12-11T04:27:13;68;54;
61592;PMS5003;47485;51.378;-1.342;2022-12-11T04:29:40;55;48;
61592;PMS5003;47485;51.378;-1.342;2022-12-11T04:32:07;63;51;
61592;PMS5003;47485;51.378;-1.342;2022-12-11T04:34:34;52;45;
61592;PMS5003;47485;51.378;-1.342;2022-12-11T04:37:01;59;49;
61592;PMS5003;47485;51.378;-1.342;2022-12-11T04:39:27;49;40;
61592;PMS5003;47485;51.378;-1.342;2022-12-11T04:41:54;67;45;
61592;PMS5003;47485;51.378;-1.342;2022-12-11T04:44:20;56;43;
61592;PMS5003;47485;51.378;-1.342;2022-12-11T04:46:48;58;51;
61592;PMS5003;47485;51.378;-1.342;2022-12-11T04:49:14;65;49;
61592;PMS5003;47485;51.378;-1.342;2022-12-11T04:51:41;52;47;
61592;PMS5003;47485;51.378;-1.342;2022-12-11T04:54:08;68;59;
61592;PMS5003;47485;51.378;-1.342;2022-12-11T04:56:35;62;53;
61592;PMS5003;47485;51.378;-1.342;2022-12-11T04:59:01;55;51;
61592;PMS5003;47485;51.378;-1.342;2022-12-11T05:01:28;60;51;
61592;PMS5003;47485;51.378;-1.342;2022-12-11T05:03:55;63;53;
61592;PMS5003;47485;51.378;-1.342;2022-12-11T05:06:24;67;57;
61592;PMS5003;47485;51.378;-1.342;2022-12-11T05:08:50;66;51;
61592;PMS5003;47485;51.378;-1.342;2022-12-11T05:11:17;64;56;
61592;PMS5003;47485;51.378;-1.342;2022-12-11T05:13:45;58;52;
61592;PMS5003;47485;51.378;-1.342;2022-12-11T05:16:13;56;45;
61592;PMS5003;47485;51.378;-1.342;2022-12-11T05:18:42;70;54;
61592;PMS5003;47485;51.378;-1.342;2022-12-11T05:21:10;59;45;
61592;PMS5003;47485;51.378;-1.342;2022-12-11T05:23:39;63;48;
61592;PMS5003;47485;51.378;-1.342;2022-12-11T05:26:09;65;52;
61592;PMS5003;47485;51.378;-1.342;2022-12-11T05:28:38;68;53;
61592;PMS5003;47485;51.378;-1.342;2022-12-11T05:31:07;58;51;
61592;PMS5003;47485;51.378;-1.342;2022-12-11T05:33:36;61;49;
61592;PMS5003;47485;51.378;-1.342;2022-12-11T05:36:03;58;53;
61592;PMS5003;47485;51.378;-1.342;2022-12-11T05:38:30;53;50;
61592;PMS5003;47485;51.378;-1.342;2022-12-11T05:40:58;56;44;
61592;PMS5003;47485;51.378;-1.342;2022-12-11T05:43:27;48;38;
61592;PMS5003;47485;51.378;-1.342;2022-12-11T05:46:04;54;44;
61592;PMS5003;47485;51.378;-1.342;2022-12-11T05:48:32;47;41;
61592;PMS5003;47485;51.378;-1.342;2022-12-11T05:51:00;57;45;
61592;PMS5003;47485;51.378;-1.342;2022-12-11T05:53:27;55;45;
61592;PMS5003;47485;51.378;-1.342;2022-12-11T05:55:59;45;42;
61592;PMS5003;47485;51.378;-1.342;2022-12-11T05:58:26;47;39;
61592;PMS5003;47485;51.378;-1.342;2022-12-11T06:00:53;43;39;
61592;PMS5003;47485;51.378;-1.342;2022-12-11T06:03:20;37;34;
61592;PMS5003;47485;51.378;-1.342;2022-12-11T06:05:47;48;40;
61592;PMS5003;47485;51.378;-1.342;2022-12-11T06:08:14;48;34;
61592;PMS5003;47485;51.378;-1.342;2022-12-11T06:10:43;40;36;
61592;PMS5003;47485;51.378;-1.342;2022-12-11T06:13:11;48;42;
61592;PMS5003;47485;51.378;-1.342;2022-12-11T06:15:39;39;30;
61592;PMS5003;47485;51.378;-1.342;2022-12-11T06:18:06;36;29;
61592;PMS5003;47485;51.378;-1.342;2022-12-11T06:20:32;40;36;
61592;PMS5003;47485;51.378;-1.342;2022-12-11T06:23:00;35;33;
61592;PMS5003;47485;51.378;-1.342;2022-12-11T06:25:27;43;38;
61592;PMS5003;47485;51.378;-1.342;2022-12-11T06:27:55;44;39;
61592;PMS5003;47485;51.378;-1.342;2022-12-11T06:30:22;49;38;
61592;PMS5003;47485;51.378;-1.342;2022-12-11T06:32:49;42;32;
61592;PMS5003;47485;51.378;-1.342;2022-12-11T06:35:16;45;37;
61592;PMS5003;47485;51.378;-1.342;2022-12-11T06:37:43;50;41;
61592;PMS5003;47485;51.378;-1.342;2022-12-11T06:40:10;46;41;
61592;PMS5003;47485;51.378;-1.342;2022-12-11T06:42:37;40;38;
61592;PMS5003;47485;51.378;-1.342;2022-12-11T06:45:04;41;37;
61592;PMS5003;47485;51.378;-1.342;2022-12-11T06:47:32;40;38;
61592;PMS5003;47485;51.378;-1.342;2022-12-11T06:49:58;48;38;
61592;PMS5003;47485;51.378;-1.342;2022-12-11T06:52:25;45;40;
61592;PMS5003;47485;51.378;-1.342;2022-12-11T06:54:52;44;36;
61592;PMS5003;47485;51.378;-1.342;2022-12-11T06:57:20;53;41;
61592;PMS5003;47485;51.378;-1.342;2022-12-11T06:59:46;47;38;
61592;PMS5003;47485;51.378;-1.342;2022-12-11T07:02:14;48;40;
61592;PMS5003;47485;51.378;-1.342;2022-12-11T07:04:43;51;38;
61592;PMS5003;47485;51.378;-1.342;2022-12-11T07:07:10;43;35;
61592;PMS5003;47485;51.378;-1.342;2022-12-11T07:09:38;44;36;
61592;PMS5003;47485;51.378;-1.342;2022-12-11T07:12:06;39;30;
61592;PMS5003;47485;51.378;-1.342;2022-12-11T07:14:33;44;38;
61592;PMS5003;47485;51.378;-1.342;2022-12-11T07:17:01;50;38;
61592;PMS5003;47485;51.378;-1.342;2022-12-11T07:19:27;35;34;
61592;PMS5003;47485;51.378;-1.342;2022-12-11T07:21:53;45;40;
61592;PMS5003;47485;51.378;-1.342;2022-12-11T07:24:20;40;35;
61592;PMS5003;47485;51.378;-1.342;2022-12-11T07:26:47;37;31;
61592;PMS5003;47485;51.378;-1.342;2022-12-11T07:29:13;37;33;
61592;PMS5003;47485;51.378;-1.342;2022-12-11T07:31:40;44;37;
61592;PMS5003;47485;51.378;-1.342;2022-12-11T07:34:06;40;34;
61592;PMS5003;47485;51.378;-1.342;2022-12-11T07:36:33;49;40;
61592;PMS5003;47485;51.378;-1.342;2022-12-11T07:39:00;47;41;
61592;PMS5003;47485;51.378;-1.342;2022-12-11T07:41:27;37;33;
61592;PMS5003;47485;51.378;-1.342;2022-12-11T07:43:54;39;28;
61592;PMS5003;47485;51.378;-1.342;2022-12-11T07:46:22;41;38;
61592;PMS5003;47485;51.378;-1.342;2022-12-11T07:48:50;46;33;
61592;PMS5003;47485;51.378;-1.342;2022-12-11T07:51:18;39;31;
61592;PMS5003;47485;51.378;-1.342;2022-12-11T07:53:47;43;40;
61592;PMS5003;47485;51.378;-1.342;2022-12-11T07:56:15;39;37;
61592;PMS5003;47485;51.378;-1.342;2022-12-11T07:58:43;47;37;
61592;PMS5003;47485;51.378;-1.342;2022-12-11T08:01:11;42;37;
61592;PMS5003;47485;51.378;-1.342;2022-12-11T08:03:39;39;31;
61592;PMS5003;47485;51.378;-1.342;2022-12-11T08:06:06;46;33;
61592;PMS5003;47485;51.378;-1.342;2022-12-11T08:08:34;43;35;
61592;PMS5003;47485;51.378;-1.342;2022-12-11T08:11:01;41;35;
61592;PMS5003;47485;51.378;-1.342;2022-12-11T08:13:29;44;39;
61592;PMS5003;47485;51.378;-1.342;2022-12-11T08:15:56;41;32;
61592;PMS5003;47485;51.378;-1.342;2022-12-11T08:18:23;40;31;
61592;PMS5003;47485;51.378;-1.342;2022-12-11T08:20:50;43;39;
61592;PMS5003;47485;51.378;-1.342;2022-12-11T08:23:16;63;47;
61592;PMS5003;47485;51.378;-1.342;2022-12-11T08:25:43;52;39;
61592;PMS5003;47485;51.378;-1.342;2022-12-11T08:28:10;41;36;
61592;PMS5003;47485;51.378;-1.342;2022-12-11T08:30:38;42;37;
61592;PMS5003;47485;51.378;-1.342;2022-12-11T08:33:06;50;38;
61592;PMS5003;47485;51.378;-1.342;2022-12-11T08:35:32;49;39;
61592;PMS5003;47485;51.378;-1.342;2022-12-11T08:38:04;53;40;
61592;PMS5003;47485;51.378;-1.342;2022-12-11T08:40:31;44;38;
61592;PMS5003;47485;51.378;-1.342;2022-12-11T08:42:58;63;52;
61592;PMS5003;47485;51.378;-1.342;2022-12-11T08:45:24;54;43;
61592;PMS5003;47485;51.378;-1.342;2022-12-11T08:47:51;53;43;
61592;PMS5003;47485;51.378;-1.342;2022-12-11T08:50:18;42;34;
61592;PMS5003;47485;51.378;-1.342;2022-12-11T08:52:44;52;44;
61592;PMS5003;47485;51.378;-1.342;2022-12-11T08:55:12;49;44;
61592;PMS5003;47485;51.378;-1.342;2022-12-11T08:57:40;44;42;
61592;PMS5003;47485;51.378;-1.342;2022-12-11T09:00:08;51;42;
61592;PMS5003;47485;51.378;-1.342;2022-12-11T09:02:38;52;33;
61592;PMS5003;47485;51.378;-1.342;2022-12-11T09:05:05;52;42;
61592;PMS5003;47485;51.378;-1.342;2022-12-11T09:07:33;47;38;
61592;PMS5003;47485;51.378;-1.342;2022-12-11T09:10:00;51;39;
61592;PMS5003;47485;51.378;-1.342;2022-12-11T09:12:27;50;40;
61592;PMS5003;47485;51.378;-1.342;2022-12-11T09:14:54;46;37;
61592;PMS5003;47485;51.378;-1.342;2022-12-11T09:17:21;51;43;
61592;PMS5003;47485;51.378;-1.342;2022-12-11T09:19:48;51;40;
61592;PMS5003;47485;51.378;-1.342;2022-12-11T09:22:15;55;43;
61592;PMS5003;47485;51.378;-1.342;2022-12-11T09:24:42;45;37;
61592;PMS5003;47485;51.378;-1.342;2022-12-11T09:27:09;50;43;
61592;PMS5003;47485;51.378;-1.342;2022-12-11T09:29:35;54;41;
61592;PMS5003;47485;51.378;-1.342;2022-12-11T09:32:04;59;45;
61592;PMS5003;47485;51.378;-1.342;2022-12-11T09:34:31;53;47;
61592;PMS5003;47485;51.378;-1.342;2022-12-11T09:36:58;61;49;
61592;PMS5003;47485;51.378;-1.342;2022-12-11T09:39:26;66;54;
61592;PMS5003;47485;51.378;-1.342;2022-12-11T09:41:54;58;47;
61592;PMS5003;47485;51.378;-1.342;2022-12-11T09:44:31;70;52;
61592;PMS5003;47485;51.378;-1.342;2022-12-11T09:47:08;65;56;
61592;PMS5003;47485;51.378;-1.342;2022-12-11T09:47:19;65;56;
61592;PMS5003;47485;51.378;-1.342;2022-12-11T09:49:49;67;57;
61592;PMS5003;47485;51.378;-1.342;2022-12-11T09:52:24;78;56;
61592;PMS5003;47485;51.378;-1.342;2022-12-11T09:54:58;70;52;
61592;PMS5003;47485;51.378;-1.342;2022-12-11T09:57:31;64;53;
61592;PMS5003;47485;51.378;-1.342;2022-12-11T10:00:10;68;57;
61592;PMS5003;47485;51.378;-1.342;2022-12-11T10:02:48;70;55;
61592;PMS5003;47485;51.378;-1.342;2022-12-11T10:05:33;72;59;
61592;PMS5003;47485;51.378;-1.342;2022-12-11T10:08:08;50;41;
61592;PMS5003;47485;51.378;-1.342;2022-12-11T10:10:42;51;39;
61592;PMS5003;47485;51.378;-1.342;2022-12-11T10:13:18;46;40;
61592;PMS5003;47485;51.378;-1.342;2022-12-11T10:15:53;42;34;
61592;PMS5003;47485;51.378;-1.342;2022-12-11T10:18:25;40;35;
61592;PMS5003;47485;51.378;-1.342;2022-12-11T10:20:55;47;33;
61592;PMS5003;47485;51.378;-1.342;2022-12-11T10:23:23;40;30;
61592;PMS5003;47485;51.378;-1.342;2022-12-11T10:25:56;42;33;
61592;PMS5003;47485;51.378;-1.342;2022-12-11T10:28:27;41;35;
61592;PMS5003;47485;51.378;-1.342;2022-12-11T10:30:56;34;28;
61592;PMS5003;47485;51.378;-1.342;2022-12-11T10:33:30;41;29;
61592;PMS5003;47485;51.378;-1.342;2022-12-11T10:36:07;36;31;
61592;PMS5003;47485;51.378;-1.342;2022-12-11T10:38:37;32;26;
61592;PMS5003;47485;51.378;-1.342;2022-12-11T10:41:09;43;34;
61592;PMS5003;47485;51.378;-1.342;2022-12-11T10:43:40;32;24;
61592;PMS5003;47485;51.378;-1.342;2022-12-11T10:46:13;39;29;
61592;PMS5003;47485;51.378;-1.342;2022-12-11T10:48:45;32;29;
61592;PMS5003;47485;51.378;-1.342;2022-12-11T10:51:13;35;29;
61592;PMS5003;47485;51.378;-1.342;2022-12-11T10:53:41;36;28;
61592;PMS5003;47485;51.378;-1.342;2022-12-11T10:56:08;34;29;
61592;PMS5003;47485;51.378;-1.342;2022-12-11T10:58:36;35;33;
61592;PMS5003;47485;51.378;-1.342;2022-12-11T11:01:13;39;31;
61592;PMS5003;47485;51.378;-1.342;2022-12-11T11:03:50;44;36;
61592;PMS5003;47485;51.378;-1.342;2022-12-11T11:06:20;36;28;
61592;PMS5003;47485;51.378;-1.342;2022-12-11T11:08:49;37;35;
61592;PMS5003;47485;51.378;-1.342;2022-12-11T11:11:21;41;32;
61592;PMS5003;47485;51.378;-1.342;2022-12-11T11:13:51;38;33;
61592;PMS5003;47485;51.378;-1.342;2022-12-11T11:16:29;42;32;
61592;PMS5003;47485;51.378;-1.342;2022-12-11T11:18:56;45;35;
61592;PMS5003;47485;51.378;-1.342;2022-12-11T11:21:24;37;29;
61592;PMS5003;47485;51.378;-1.342;2022-12-11T11:23:52;39;33;
61592;PMS5003;47485;51.378;-1.342;2022-12-11T11:26:20;43;35;
61592;PMS5003;47485;51.378;-1.342;2022-12-11T11:28:48;44;39;
61592;PMS5003;47485;51.378;-1.342;2022-12-11T11:31:17;43;39;
61592;PMS5003;47485;51.378;-1.342;2022-12-11T11:33:48;42;36;
61592;PMS5003;47485;51.378;-1.342;2022-12-11T11:36:22;50;40;
61592;PMS5003;47485;51.378;-1.342;2022-12-11T11:38:55;45;35;
61592;PMS5003;47485;51.378;-1.342;2022-12-11T11:41:33;50;39;
61592;PMS5003;47485;51.378;-1.342;2022-12-11T11:44:08;56;47;
61592;PMS5003;47485;51.378;-1.342;2022-12-11T11:46:38;74;55;
61592;PMS5003;47485;51.378;-1.342;2022-12-11T11:49:12;53;47;
61592;PMS5003;47485;51.378;-1.342;2022-12-11T11:51:46;52;46;
61592;PMS5003;47485;51.378;-1.342;2022-12-11T11:54:22;61;52;
61592;PMS5003;47485;51.378;-1.342;2022-12-11T11:56:55;66;57;
61592;PMS5003;47485;51.378;-1.342;2022-12-11T11:59:25;61;49;
61592;PMS5003;47485;51.378;-1.342;2022-12-11T12:01:56;45;38;
61592;PMS5003;47485;51.378;-1.342;2022-12-11T12:04:24;51;44;
61592;PMS5003;47485;51.378;-1.342;2022-12-11T12:07:06;50;41;
61592;PMS5003;47485;51.378;-1.342;2022-12-11T12:09:45;61;43;
61592;PMS5003;47485;51.378;-1.342;2022-12-11T12:12:22;57;45;
61592;PMS5003;47485;51.378;-1.342;2022-12-11T12:15:01;49;42;
61592;PMS5003;47485;51.378;-1.342;2022-12-11T12:17:48;57;41;
61592;PMS5003;47485;51.378;-1.342;2022-12-11T12:20:19;46;41;
61592;PMS5003;47485;51.378;-1.342;2022-12-11T12:23:07;50;43;
61592;PMS5003;47485;51.378;-1.342;2022-12-11T12:25:49;93;74;
61592;PMS5003;47485;51.378;-1.342;2022-12-11T12:28:25;75;63;
61592;PMS5003;47485;51.378;-1.342;2022-12-11T12:31:02;55;51;
61592;PMS5003;47485;51.378;-1.342;2022-12-11T12:33:40;54;48;
61592;PMS5003;47485;51.378;-1.342;2022-12-11T12:36:16;51;39;
61592;PMS5003;47485;51.378;-1.342;2022-12-11T12:38:51;58;49;
61592;PMS5003;47485;51.378;-1.342;2022-12-11T12:41:20;56;46;
61592;PMS5003;47485;51.378;-1.342;2022-12-11T12:43:56;53;45;
61592;PMS5003;47485;51.378;-1.342;2022-12-11T12:46:33;66;50;
61592;PMS5003;47485;51.378;-1.342;2022-12-11T12:49:09;54;43;
61592;PMS5003;47485;51.378;-1.342;2022-12-11T12:51:41;58;51;
61592;PMS5003;47485;51.378;-1.342;2022-12-11T12:54:09;62;53;
61592;PMS5003;47485;51.378;-1.342;2022-12-11T12:56:43;47;43;
61592;PMS5003;47485;51.378;-1.342;2022-12-11T12:59:20;59;47;
61592;PMS5003;47485;51.378;-1.342;2022-12-11T13:01:49;53;43;
61592;PMS5003;47485;51.378;-1.342;2022-12-11T13:04:26;51;41;
61592;PMS5003;47485;51.378;-1.342;2022-12-11T13:07:08;55;43;
61592;PMS5003;47485;51.378;-1.342;2022-12-11T13:09:37;48;44;
61592;PMS5003;47485;51.378;-1.342;2022-12-11T13:12:10;53;43;
61592;PMS5003;47485;51.378;-1.342;2022-12-11T13:14:40;56;45;
61592;PMS5003;47485;51.378;-1.342;2022-12-11T13:17:24;48;41;
61592;PMS5003;47485;51.378;-1.342;2022-12-11T13:20:16;49;45;
61592;PMS5003;47485;51.378;-1.342;2022-12-11T13:22:46;51;48;
61592;PMS5003;47485;51.378;-1.342;2022-12-11T13:25:22;41;37;
61592;PMS5003;47485;51.378;-1.342;2022-12-11T13:27:51;59;47;
61592;PMS5003;47485;51.378;-1.342;2022-12-11T13:30:21;54;46;
61592;PMS5003;47485;51.378;-1.342;2022-12-11T13:32:54;48;41;
61592;PMS5003;47485;51.378;-1.342;2022-12-11T13:35:27;53;41;
61592;PMS5003;47485;51.378;-1.342;2022-12-11T13:37:55;52;46;
61592;PMS5003;47485;51.378;-1.342;2022-12-11T13:40:31;55;41;
61592;PMS5003;47485;51.378;-1.342;2022-12-11T13:43:04;45;38;
61592;PMS5003;47485;51.378;-1.342;2022-12-11T13:45:36;47;35;
61592;PMS5003;47485;51.378;-1.342;2022-12-11T13:48:10;58;45;
61592;PMS5003;47485;51.378;-1.342;2022-12-11T13:50:44;44;39;
61592;PMS5003;47485;51.378;-1.342;2022-12-11T13:53:13;58;42;
61592;PMS5003;47485;51.378;-1.342;2022-12-11T13:55:41;51;42;
61592;PMS5003;47485;51.378;-1.342;2022-12-11T13:58:17;65;49;
61592;PMS5003;47485;51.378;-1.342;2022-12-11T14:00:52;52;47;
61592;PMS5003;47485;51.378;-1.342;2022-12-11T14:03:24;64;53;
61592;PMS5003;47485;51.378;-1.342;2022-12-11T14:05:51;63;50;
61592;PMS5003;47485;51.378;-1.342;2022-12-11T14:08:19;60;51;
61592;PMS5003;47485;51.378;-1.342;2022-12-11T14:10:50;63;53;
61592;PMS5003;47485;51.378;-1.342;2022-12-11T14:13:19;52;44;
61592;PMS5003;47485;51.378;-1.342;2022-12-11T14:15:50;38;34;
61592;PMS5003;47485;51.378;-1.342;2022-12-11T14:18:19;54;40;
61592;PMS5003;47485;51.378;-1.342;2022-12-11T14:20:52;72;62;
61592;PMS5003;47485;51.378;-1.342;2022-12-11T14:23:21;74;51;
61592;PMS5003;47485;51.378;-1.342;2022-12-11T14:25:51;144;109;
61592;PMS5003;47485;51.378;-1.342;2022-12-11T14:28:18;153;114;
61592;PMS5003;47485;51.378;-1.342;2022-12-11T14:30:46;200;136;
61592;PMS5003;47485;51.378;-1.342;2022-12-11T14:33:17;149;119;
61592;PMS5003;47485;51.378;-1.342;2022-12-11T14:35:49;92;74;
61592;PMS5003;47485;51.378;-1.342;2022-12-11T14:38:18;69;54;
61592;PMS5003;47485;51.378;-1.342;2022-12-11T14:40:50;65;52;
61592;PMS5003;47485;51.378;-1.342;2022-12-11T14:43:21;58;51;
61592;PMS5003;47485;51.378;-1.342;2022-12-11T14:45:52;47;40;
61592;PMS5003;47485;51.378;-1.342;2022-12-11T14:48:24;47;41;
61592;PMS5003;47485;51.378;-1.342;2022-12-11T14:50:56;43;37;
61592;PMS5003;47485;51.378;-1.342;2022-12-11T14:53:26;39;32;
61592;PMS5003;47485;51.378;-1.342;2022-12-11T14:55:59;43;39;
61592;PMS5003;47485;51.378;-1.342;2022-12-11T14:58:28;51;44;
61592;PMS5003;47485;51.378;-1.342;2022-12-11T15:00:57;43;37;
61592;PMS5003;47485;51.378;-1.342;2022-12-11T15:03:29;41;34;
61592;PMS5003;47485;51.378;-1.342;2022-12-11T15:05:57;38;34;
61592;PMS5003;47485;51.378;-1.342;2022-12-11T15:08:25;66;56;
61592;PMS5003;47485;51.378;-1.342;2022-12-11T15:10:57;67;58;
61592;PMS5003;47485;51.378;-1.342;2022-12-11T15:13:29;69;57;
61592;PMS5003;47485;51.378;-1.342;2022-12-11T15:15:57;49;45;
61592;PMS5003;47485;51.378;-1.342;2022-12-11T15:18:26;46;39;
61592;PMS5003;47485;51.378;-1.342;2022-12-11T15:20:56;42;37;
61592;PMS5003;47485;51.378;-1.342;2022-12-11T15:23:25;70;55;
61592;PMS5003;47485;51.378;-1.342;2022-12-11T15:25:54;44;40;
61592;PMS5003;47485;51.378;-1.342;2022-12-11T15:28:27;53;49;
61592;PMS5003;47485;51.378;-1.342;2022-12-11T15:30:56;78;67;
61592;PMS5003;47485;51.378;-1.342;2022-12-11T15:33:25;81;72;
61592;PMS5003;47485;51.378;-1.342;2022-12-11T15:35:54;54;47;
61592;PMS5003;47485;51.378;-1.342;2022-12-11T15:38:25;65;57;
61592;PMS5003;47485;51.378;-1.342;2022-12-11T15:40:54;62;53;
61592;PMS5003;47485;51.378;-1.342;2022-12-11T15:43:22;86;74;
61592;PMS5003;47485;51.378;-1.342;2022-12-11T15:45:49;83;70;
61592;PMS5003;47485;51.378;-1.342;2022-12-11T15:48:16;66;58;
61592;PMS5003;47485;51.378;-1.342;2022-12-11T15:50:43;94;67;
61592;PMS5003;47485;51.378;-1.342;2022-12-11T15:53:10;85;69;
61592;PMS5003;47485;51.378;-1.342;2022-12-11T15:55:37;93;76;
61592;PMS5003;47485;51.378;-1.342;2022-12-11T15:58:05;82;70;
61592;PMS5003;47485;51.378;-1.342;2022-12-11T16:00:37;87;69;
61592;PMS5003;47485;51.378;-1.342;2022-12-11T16:03:03;62;56;
61592;PMS5003;47485;51.378;-1.342;2022-12-11T16:05:30;68;61;
61592;PMS5003;47485;51.378;-1.342;2022-12-11T16:07:57;64;51;
61592;PMS5003;47485;51.378;-1.342;2022-12-11T16:10:24;64;48;
61592;PMS5003;47485;51.378;-1.342;2022-12-11T16:12:51;58;48;
61592;PMS5003;47485;51.378;-1.342;2022-12-11T16:15:18;57;53;